sensor_id;sensor_type;location;lat;lon;timestamp;P1;durP1;ratioP1;P2;durP2;ratioP2
22046;SDS011;11187;49.412;20.956;2023-02-22T00:01:24;29.65;;;22.55;;
22046;SDS011;11187;49.412;20.956;2023-02-22T00:04:06;24.42;;;21.88;;
22046;SDS011;11187;49.412;20.956;2023-02-22T00:06:47;25.88;;;23.20;;
22046;SDS011;11187;49.412;20.956;2023-02-22T00:09:28;24.25;;;21.77;;
22046;SDS011;11187;49.412;20.956;2023-02-22T00:12:08;25.58;;;22.80;;
22046;SDS011;11187;49.412;20.956;2023-02-22T00:14:48;22.42;;;19.23;;
22046;SDS011;11187;49.412;20.956;2023-02-22T00:17:22;29.05;;;20.30;;
22046;SDS011;11187;49.412;20.956;2023-02-22T00:20:09;28.98;;;21.05;;
22046;SDS011;11187;49.412;20.956;2023-02-22T00:22:46;22.77;;;20.55;;
22046;SDS011;11187;49.412;20.956;2023-02-22T00:25:33;24.98;;;21.55;;
22046;SDS011;11187;49.412;20.956;2023-02-22T00:28:07;21.02;;;18.90;;
22046;SDS011;11187;49.412;20.956;2023-02-22T00:30:54;24.55;;;20.25;;
22046;SDS011;11187;49.412;20.956;2023-02-22T00:33:27;22.38;;;19.70;;
22046;SDS011;11187;49.412;20.956;2023-02-22T00:36:22;23.17;;;18.52;;
22046;SDS011;11187;49.412;20.956;2023-02-22T00:39:16;22.70;;;20.45;;
22046;SDS011;11187;49.412;20.956;2023-02-22T00:42:10;24.70;;;22.58;;
22046;SDS011;11187;49.412;20.956;2023-02-22T00:44:43;24.70;;;21.85;;
22046;SDS011;11187;49.412;20.956;2023-02-22T00:47:30;23.17;;;20.83;;
22046;SDS011;11187;49.412;20.956;2023-02-22T00:50:03;23.10;;;20.80;;
22046;SDS011;11187;49.412;20.956;2023-02-22T00:52:51;25.65;;;21.70;;
22046;SDS011;11187;49.412;20.956;2023-02-22T00:55:26;23.90;;;21.40;;
22046;SDS011;11187;49.412;20.956;2023-02-22T00:58:22;23.67;;;21.17;;
22046;SDS011;11187;49.412;20.956;2023-02-22T01:00:56;26.20;;;22.55;;
22046;SDS011;11187;49.412;20.956;2023-02-22T01:03:50;24.42;;;21.88;;
22046;SDS011;11187;49.412;20.956;2023-02-22T01:06:23;24.15;;;20.60;;
22046;SDS011;11187;49.412;20.956;2023-02-22T01:09:17;23.25;;;19.98;;
22046;SDS011;11187;49.412;20.956;2023-02-22T01:11:54;26.77;;;20.52;;
22046;SDS011;11187;49.412;20.956;2023-02-22T01:14:48;28.02;;;20.60;;
22046;SDS011;11187;49.412;20.956;2023-02-22T01:17:45;24.05;;;21.52;;
22046;SDS011;11187;49.412;20.956;2023-02-22T01:20:19;26.08;;;23.10;;
22046;SDS011;11187;49.412;20.956;2023-02-22T01:23:08;21.05;;;18.90;;
22046;SDS011;11187;49.412;20.956;2023-02-22T01:25:42;23.95;;;21.55;;
22046;SDS011;11187;49.412;20.956;2023-02-22T01:28:36;22.30;;;19.95;;
22046;SDS011;11187;49.412;20.956;2023-02-22T01:31:31;26.52;;;21.83;;
22046;SDS011;11187;49.412;20.956;2023-02-22T01:34:25;24.60;;;21.83;;
22046;SDS011;11187;49.412;20.956;2023-02-22T01:36:59;23.88;;;19.88;;
22046;SDS011;11187;49.412;20.956;2023-02-22T01:39:46;24.95;;;19.85;;
22046;SDS011;11187;49.412;20.956;2023-02-22T01:42:19;23.20;;;20.83;;
22046;SDS011;11187;49.412;20.956;2023-02-22T01:48:07;22.80;;;20.50;;
22046;SDS011;11187;49.412;20.956;2023-02-22T01:54:00;27.88;;;21.58;;
22046;SDS011;11187;49.412;20.956;2023-02-22T01:59:41;22.15;;;20.15;;
22046;SDS011;11187;49.412;20.956;2023-02-22T02:02:40;28.98;;;20.05;;
22046;SDS011;11187;49.412;20.956;2023-02-22T02:05:38;23.08;;;20.65;;
22046;SDS011;11187;49.412;20.956;2023-02-22T02:08:23;23.63;;;21.33;;
22046;SDS011;11187;49.412;20.956;2023-02-22T02:11:19;23.77;;;19.33;;
22046;SDS011;11187;49.412;20.956;2023-02-22T02:13:55;22.45;;;20.27;;
22046;SDS011;11187;49.412;20.956;2023-02-22T02:16:51;23.48;;;21.33;;
22046;SDS011;11187;49.412;20.956;2023-02-22T02:22:43;24.75;;;22.42;;
22046;SDS011;11187;49.412;20.956;2023-02-22T02:47:26;21.15;;;19.25;;
22046;SDS011;11187;49.412;20.956;2023-02-22T02:50:07;21.55;;;19.65;;
22046;SDS011;11187;49.412;20.956;2023-02-22T02:53:00;20.42;;;18.83;;
22046;SDS011;11187;49.412;20.956;2023-02-22T02:55:36;20.15;;;17.90;;
22046;SDS011;11187;49.412;20.956;2023-02-22T02:58:30;20.25;;;18.27;;
22046;SDS011;11187;49.412;20.956;2023-02-22T03:01:03;20.55;;;18.70;;
22046;SDS011;11187;49.412;20.956;2023-02-22T03:04:01;18.98;;;16.90;;
22046;SDS011;11187;49.412;20.956;2023-02-22T03:07:02;20.83;;;18.83;;
22046;SDS011;11187;49.412;20.956;2023-02-22T03:09:44;21.98;;;19.92;;
22046;SDS011;11187;49.412;20.956;2023-02-22T03:19:20;21.10;;;19.30;;
22046;SDS011;11187;49.412;20.956;2023-02-22T03:28:28;20.27;;;18.25;;
22046;SDS011;11187;49.412;20.956;2023-02-22T03:31:30;21.92;;;19.90;;
22046;SDS011;11187;49.412;20.956;2023-02-22T03:34:35;24.35;;;21.67;;
22046;SDS011;11187;49.412;20.956;2023-02-22T03:37:34;23.52;;;18.55;;
22046;SDS011;11187;49.412;20.956;2023-02-22T03:40:34;22.65;;;20.05;;
22046;SDS011;11187;49.412;20.956;2023-02-22T03:43:33;22.65;;;18.90;;
22046;SDS011;11187;49.412;20.956;2023-02-22T03:46:10;22.52;;;19.90;;
22046;SDS011;11187;49.412;20.956;2023-02-22T03:49:11;21.60;;;19.67;;
22046;SDS011;11187;49.412;20.956;2023-02-22T03:51:49;25.48;;;20.27;;
22046;SDS011;11187;49.412;20.956;2023-02-22T03:54:43;23.88;;;20.08;;
22046;SDS011;11187;49.412;20.956;2023-02-22T03:57:18;22.73;;;20.17;;
22046;SDS011;11187;49.412;20.956;2023-02-22T04:00:34;22.10;;;19.83;;
22046;SDS011;11187;49.412;20.956;2023-02-22T04:03:30;21.95;;;19.52;;
22046;SDS011;11187;49.412;20.956;2023-02-22T04:06:03;23.15;;;20.73;;
22046;SDS011;11187;49.412;20.956;2023-02-22T04:09:01;22.58;;;20.27;;
22046;SDS011;11187;49.412;20.956;2023-02-22T04:12:03;23.52;;;20.35;;
22046;SDS011;11187;49.412;20.956;2023-02-22T04:14:57;24.02;;;21.58;;
22046;SDS011;11187;49.412;20.956;2023-02-22T04:17:51;21.60;;;19.50;;
22046;SDS011;11187;49.412;20.956;2023-02-22T04:20:45;24.85;;;20.70;;
22046;SDS011;11187;49.412;20.956;2023-02-22T04:23:18;23.40;;;19.88;;
22046;SDS011;11187;49.412;20.956;2023-02-22T04:26:05;21.90;;;19.48;;
22046;SDS011;11187;49.412;20.956;2023-02-22T04:28:38;23.38;;;20.85;;
22046;SDS011;11187;49.412;20.956;2023-02-22T04:31:25;23.17;;;21.05;;
22046;SDS011;11187;49.412;20.956;2023-02-22T04:33:59;23.23;;;20.33;;
22046;SDS011;11187;49.412;20.956;2023-02-22T04:36:46;25.30;;;20.63;;
22046;SDS011;11187;49.412;20.956;2023-02-22T04:39:19;22.83;;;20.60;;
22046;SDS011;11187;49.412;20.956;2023-02-22T04:42:14;22.70;;;19.10;;
22046;SDS011;11187;49.412;20.956;2023-02-22T04:44:47;21.63;;;19.48;;
22046;SDS011;11187;49.412;20.956;2023-02-22T04:47:41;25.85;;;19.63;;
22046;SDS011;11187;49.412;20.956;2023-02-22T04:50:35;23.40;;;20.63;;
22046;SDS011;11187;49.412;20.956;2023-02-22T04:53:09;20.55;;;18.00;;
22046;SDS011;11187;49.412;20.956;2023-02-22T04:56:03;21.50;;;19.45;;
22046;SDS011;11187;49.412;20.956;2023-02-22T04:58:36;23.58;;;18.80;;
22046;SDS011;11187;49.412;20.956;2023-02-22T05:01:23;27.48;;;19.45;;
22046;SDS011;11187;49.412;20.956;2023-02-22T05:03:56;21.60;;;19.05;;
22046;SDS011;11187;49.412;20.956;2023-02-22T05:06:43;20.08;;;18.02;;
22046;SDS011;11187;49.412;20.956;2023-02-22T05:09:19;26.50;;;19.70;;
22046;SDS011;11187;49.412;20.956;2023-02-22T05:12:13;23.90;;;18.20;;
22046;SDS011;11187;49.412;20.956;2023-02-22T05:15:07;21.30;;;19.20;;
22046;SDS011;11187;49.412;20.956;2023-02-22T05:18:01;23.85;;;20.42;;
22046;SDS011;11187;49.412;20.956;2023-02-22T05:20:34;21.05;;;18.85;;
22046;SDS011;11187;49.412;20.956;2023-02-22T05:23:28;22.90;;;20.58;;
22046;SDS011;11187;49.412;20.956;2023-02-22T05:26:22;26.48;;;20.83;;
22046;SDS011;11187;49.412;20.956;2023-02-22T05:28:55;23.92;;;19.30;;
22046;SDS011;11187;49.412;20.956;2023-02-22T05:31:42;22.65;;;18.45;;
22046;SDS011;11187;49.412;20.956;2023-02-22T05:34:15;24.40;;;18.98;;
22046;SDS011;11187;49.412;20.956;2023-02-22T05:37:09;20.60;;;18.48;;
22046;SDS011;11187;49.412;20.956;2023-02-22T05:39:42;22.80;;;20.33;;
22046;SDS011;11187;49.412;20.956;2023-02-22T05:42:29;20.98;;;18.58;;
22046;SDS011;11187;49.412;20.956;2023-02-22T05:45:02;23.23;;;18.27;;
22046;SDS011;11187;49.412;20.956;2023-02-22T05:47:49;22.50;;;20.13;;
22046;SDS011;11187;49.412;20.956;2023-02-22T05:50:23;26.90;;;22.25;;
22046;SDS011;11187;49.412;20.956;2023-02-22T05:53:18;22.63;;;20.40;;
22046;SDS011;11187;49.412;20.956;2023-02-22T05:56:12;19.58;;;17.50;;
22046;SDS011;11187;49.412;20.956;2023-02-22T05:58:45;20.50;;;18.38;;
22046;SDS011;11187;49.412;20.956;2023-02-22T06:01:32;20.90;;;17.75;;
22046;SDS011;11187;49.412;20.956;2023-02-22T06:04:05;20.92;;;17.00;;
22046;SDS011;11187;49.412;20.956;2023-02-22T06:06:52;25.15;;;16.98;;
22046;SDS011;11187;49.412;20.956;2023-02-22T06:09:25;23.65;;;16.63;;
22046;SDS011;11187;49.412;20.956;2023-02-22T06:12:12;18.83;;;16.83;;
22046;SDS011;11187;49.412;20.956;2023-02-22T06:14:45;21.83;;;17.58;;
22046;SDS011;11187;49.412;20.956;2023-02-22T06:17:39;20.80;;;14.88;;
22046;SDS011;11187;49.412;20.956;2023-02-22T06:20:14;25.63;;;16.98;;
22046;SDS011;11187;49.412;20.956;2023-02-22T06:23:10;24.50;;;16.98;;
22046;SDS011;11187;49.412;20.956;2023-02-22T06:25:43;25.40;;;18.10;;
22046;SDS011;11187;49.412;20.956;2023-02-22T06:28:37;20.25;;;18.00;;
22046;SDS011;11187;49.412;20.956;2023-02-22T06:31:10;21.13;;;16.45;;
22046;SDS011;11187;49.412;20.956;2023-02-22T06:33:57;15.95;;;13.82;;
22046;SDS011;11187;49.412;20.956;2023-02-22T06:36:30;19.70;;;17.65;;
22046;SDS011;11187;49.412;20.956;2023-02-22T06:39:24;18.77;;;16.83;;
22046;SDS011;11187;49.412;20.956;2023-02-22T06:41:58;23.90;;;16.75;;
22046;SDS011;11187;49.412;20.956;2023-02-22T06:44:45;18.15;;;16.25;;
22046;SDS011;11187;49.412;20.956;2023-02-22T06:47:18;23.15;;;20.88;;
22046;SDS011;11187;49.412;20.956;2023-02-22T06:50:20;20.60;;;18.50;;
22046;SDS011;11187;49.412;20.956;2023-02-22T06:52:56;21.08;;;19.08;;
22046;SDS011;11187;49.412;20.956;2023-02-22T06:55:43;20.83;;;18.92;;
22046;SDS011;11187;49.412;20.956;2023-02-22T06:58:16;22.27;;;18.13;;
22046;SDS011;11187;49.412;20.956;2023-02-22T07:01:10;27.45;;;17.40;;
22046;SDS011;11187;49.412;20.956;2023-02-22T07:03:45;20.65;;;18.25;;
22046;SDS011;11187;49.412;20.956;2023-02-22T07:06:34;20.48;;;18.48;;
22046;SDS011;11187;49.412;20.956;2023-02-22T07:09:07;20.38;;;18.25;;
22046;SDS011;11187;49.412;20.956;2023-02-22T07:12:01;21.00;;;19.13;;
22046;SDS011;11187;49.412;20.956;2023-02-22T07:14:34;34.47;;;24.92;;
22046;SDS011;11187;49.412;20.956;2023-02-22T07:17:21;42.22;;;26.50;;
22046;SDS011;11187;49.412;20.956;2023-02-22T07:19:54;36.45;;;23.65;;
22046;SDS011;11187;49.412;20.956;2023-02-22T07:22:48;25.00;;;19.25;;
22046;SDS011;11187;49.412;20.956;2023-02-22T07:25:42;24.08;;;20.42;;
22046;SDS011;11187;49.412;20.956;2023-02-22T07:28:15;25.60;;;20.52;;
22046;SDS011;11187;49.412;20.956;2023-02-22T07:31:02;28.80;;;18.48;;
22046;SDS011;11187;49.412;20.956;2023-02-22T07:33:36;24.75;;;18.73;;
22046;SDS011;11187;49.412;20.956;2023-02-22T07:36:23;24.92;;;16.70;;
22046;SDS011;11187;49.412;20.956;2023-02-22T07:38:56;19.42;;;17.23;;
22046;SDS011;11187;49.412;20.956;2023-02-22T07:41:43;22.08;;;17.15;;
22046;SDS011;11187;49.412;20.956;2023-02-22T07:44:16;26.77;;;19.13;;
22046;SDS011;11187;49.412;20.956;2023-02-22T07:47:03;26.13;;;17.42;;
22046;SDS011;11187;49.412;20.956;2023-02-22T07:49:36;21.08;;;17.77;;
22046;SDS011;11187;49.412;20.956;2023-02-22T07:52:30;18.60;;;16.75;;
22046;SDS011;11187;49.412;20.956;2023-02-22T07:55:03;19.70;;;13.88;;
22046;SDS011;11187;49.412;20.956;2023-02-22T07:57:52;22.08;;;16.40;;
22046;SDS011;11187;49.412;20.956;2023-02-22T08:00:28;19.88;;;17.35;;
22046;SDS011;11187;49.412;20.956;2023-02-22T08:03:26;23.70;;;18.35;;
22046;SDS011;11187;49.412;20.956;2023-02-22T08:06:24;18.60;;;14.85;;
22046;SDS011;11187;49.412;20.956;2023-02-22T08:08:57;17.05;;;13.82;;
22046;SDS011;11187;49.412;20.956;2023-02-22T08:11:44;16.17;;;14.30;;
22046;SDS011;11187;49.412;20.956;2023-02-22T08:14:17;21.27;;;15.48;;
22046;SDS011;11187;49.412;20.956;2023-02-22T08:17:04;20.92;;;14.63;;
22046;SDS011;11187;49.412;20.956;2023-02-22T08:19:37;16.13;;;14.45;;
22046;SDS011;11187;49.412;20.956;2023-02-22T08:22:24;19.80;;;15.25;;
22046;SDS011;11187;49.412;20.956;2023-02-22T08:24:59;21.02;;;14.65;;
22046;SDS011;11187;49.412;20.956;2023-02-22T08:27:46;16.13;;;14.23;;
22046;SDS011;11187;49.412;20.956;2023-02-22T08:30:21;25.65;;;15.60;;
22046;SDS011;11187;49.412;20.956;2023-02-22T08:33:18;19.77;;;17.73;;
22046;SDS011;11187;49.412;20.956;2023-02-22T08:35:53;17.85;;;15.98;;
22046;SDS011;11187;49.412;20.956;2023-02-22T08:38:40;20.20;;;15.63;;
22046;SDS011;11187;49.412;20.956;2023-02-22T08:41:13;19.27;;;17.45;;
22046;SDS011;11187;49.412;20.956;2023-02-22T08:44:07;22.38;;;16.15;;
22046;SDS011;11187;49.412;20.956;2023-02-22T08:47:01;20.33;;;15.52;;
22046;SDS011;11187;49.412;20.956;2023-02-22T08:49:34;17.40;;;13.65;;
22046;SDS011;11187;49.412;20.956;2023-02-22T08:52:21;17.67;;;15.27;;
22046;SDS011;11187;49.412;20.956;2023-02-22T08:54:54;20.55;;;15.00;;
22046;SDS011;11187;49.412;20.956;2023-02-22T08:57:48;18.45;;;14.00;;
22046;SDS011;11187;49.412;20.956;2023-02-22T09:00:42;15.27;;;12.63;;
22046;SDS011;11187;49.412;20.956;2023-02-22T09:03:36;20.00;;;15.63;;
22046;SDS011;11187;49.412;20.956;2023-02-22T09:06:09;18.13;;;15.98;;
22046;SDS011;11187;49.412;20.956;2023-02-22T09:08:56;20.05;;;15.65;;
22046;SDS011;11187;49.412;20.956;2023-02-22T09:11:29;22.38;;;14.77;;
22046;SDS011;11187;49.412;20.956;2023-02-22T09:14:16;28.05;;;15.95;;
22046;SDS011;11187;49.412;20.956;2023-02-22T09:16:49;25.38;;;17.60;;
22046;SDS011;11187;49.412;20.956;2023-02-22T09:19:36;18.95;;;16.83;;
22046;SDS011;11187;49.412;20.956;2023-02-22T09:22:09;24.05;;;18.42;;
22046;SDS011;11187;49.412;20.956;2023-02-22T09:25:03;17.77;;;15.98;;
22046;SDS011;11187;49.412;20.956;2023-02-22T09:28:00;21.00;;;16.30;;
22046;SDS011;11187;49.412;20.956;2023-02-22T09:30:55;20.17;;;18.20;;
22046;SDS011;11187;49.412;20.956;2023-02-22T09:33:28;25.00;;;19.27;;
22046;SDS011;11187;49.412;20.956;2023-02-22T09:36:15;20.42;;;16.80;;
22046;SDS011;11187;49.412;20.956;2023-02-22T09:38:51;22.65;;;19.90;;
22046;SDS011;11187;49.412;20.956;2023-02-22T09:47:41;24.00;;;16.33;;
22046;SDS011;11187;49.412;20.956;2023-02-22T09:50:52;21.90;;;16.80;;
22046;SDS011;11187;49.412;20.956;2023-02-22T09:53:39;20.58;;;18.48;;
22046;SDS011;11187;49.412;20.956;2023-02-22T09:56:16;24.73;;;18.55;;
22046;SDS011;11187;49.412;20.956;2023-02-22T09:59:05;19.80;;;16.60;;
22046;SDS011;11187;49.412;20.956;2023-02-22T10:01:45;23.40;;;17.58;;
22046;SDS011;11187;49.412;20.956;2023-02-22T10:04:44;21.67;;;19.15;;
22046;SDS011;11187;49.412;20.956;2023-02-22T10:07:27;20.35;;;18.27;;
22046;SDS011;11187;49.412;20.956;2023-02-22T10:10:20;20.45;;;18.35;;
22046;SDS011;11187;49.412;20.956;2023-02-22T10:13:04;25.70;;;19.70;;
22046;SDS011;11187;49.412;20.956;2023-02-22T10:21:55;18.73;;;16.50;;
22046;SDS011;11187;49.412;20.956;2023-02-22T10:24:45;19.70;;;16.95;;
22046;SDS011;11187;49.412;20.956;2023-02-22T10:27:43;24.17;;;17.60;;
22046;SDS011;11187;49.412;20.956;2023-02-22T10:30:50;24.83;;;19.10;;
22046;SDS011;11187;49.412;20.956;2023-02-22T10:33:30;22.40;;;17.50;;
22046;SDS011;11187;49.412;20.956;2023-02-22T10:36:21;19.55;;;17.17;;
22046;SDS011;11187;49.412;20.956;2023-02-22T10:39:01;19.75;;;17.02;;
22046;SDS011;11187;49.412;20.956;2023-02-22T10:42:11;20.02;;;17.92;;
22046;SDS011;11187;49.412;20.956;2023-02-22T10:44:44;26.02;;;17.20;;
22046;SDS011;11187;49.412;20.956;2023-02-22T10:47:31;20.15;;;18.13;;
22046;SDS011;11187;49.412;20.956;2023-02-22T10:50:05;21.65;;;17.90;;
22046;SDS011;11187;49.412;20.956;2023-02-22T10:52:53;19.38;;;16.25;;
22046;SDS011;11187;49.412;20.956;2023-02-22T10:55:27;18.05;;;15.93;;
22046;SDS011;11187;49.412;20.956;2023-02-22T10:58:21;21.05;;;17.73;;
22046;SDS011;11187;49.412;20.956;2023-02-22T11:04:26;21.00;;;18.85;;
22046;SDS011;11187;49.412;20.956;2023-02-22T11:07:41;21.42;;;17.73;;
22046;SDS011;11187;49.412;20.956;2023-02-22T11:10:14;22.50;;;17.58;;
22046;SDS011;11187;49.412;20.956;2023-02-22T11:19:29;21.17;;;16.10;;
22046;SDS011;11187;49.412;20.956;2023-02-22T11:22:28;22.20;;;16.35;;
22046;SDS011;11187;49.412;20.956;2023-02-22T11:25:17;19.92;;;17.77;;
22046;SDS011;11187;49.412;20.956;2023-02-22T11:28:10;18.83;;;16.52;;
22046;SDS011;11187;49.412;20.956;2023-02-22T11:31:13;21.83;;;16.60;;
22046;SDS011;11187;49.412;20.956;2023-02-22T11:34:23;19.60;;;17.48;;
22046;SDS011;11187;49.412;20.956;2023-02-22T11:40:17;21.63;;;17.17;;
22046;SDS011;11187;49.412;20.956;2023-02-22T11:43:16;23.48;;;17.42;;
22046;SDS011;11187;49.412;20.956;2023-02-22T11:45:55;24.88;;;18.15;;
22046;SDS011;11187;49.412;20.956;2023-02-22T11:48:52;21.70;;;18.70;;
22046;SDS011;11187;49.412;20.956;2023-02-22T11:55:21;24.63;;;15.82;;
22046;SDS011;11187;49.412;20.956;2023-02-22T11:58:29;23.33;;;17.98;;
22046;SDS011;11187;49.412;20.956;2023-02-22T12:01:38;18.35;;;15.85;;
22046;SDS011;11187;49.412;20.956;2023-02-22T12:20:04;18.20;;;16.40;;
22046;SDS011;11187;49.412;20.956;2023-02-22T12:23:19;17.88;;;15.88;;
22046;SDS011;11187;49.412;20.956;2023-02-22T12:26:12;22.60;;;16.85;;
22046;SDS011;11187;49.412;20.956;2023-02-22T12:35:26;19.98;;;17.98;;
22046;SDS011;11187;49.412;20.956;2023-02-22T12:41:27;24.90;;;16.88;;
22046;SDS011;11187;49.412;20.956;2023-02-22T12:44:17;19.52;;;16.45;;
22046;SDS011;11187;49.412;20.956;2023-02-22T12:47:18;19.30;;;16.90;;
22046;SDS011;11187;49.412;20.956;2023-02-22T12:50:19;22.67;;;18.92;;
22046;SDS011;11187;49.412;20.956;2023-02-22T12:52:56;19.88;;;17.80;;
22046;SDS011;11187;49.412;20.956;2023-02-22T12:59:51;21.30;;;16.52;;
22046;SDS011;11187;49.412;20.956;2023-02-22T13:05:50;18.67;;;16.42;;
22046;SDS011;11187;49.412;20.956;2023-02-22T13:08:34;18.65;;;16.00;;
22046;SDS011;11187;49.412;20.956;2023-02-22T13:17:45;19.73;;;17.10;;
22046;SDS011;11187;49.412;20.956;2023-02-22T13:20:37;22.73;;;17.05;;
22046;SDS011;11187;49.412;20.956;2023-02-22T13:29:29;22.30;;;16.60;;
22046;SDS011;11187;49.412;20.956;2023-02-22T13:35:11;20.02;;;16.17;;
22046;SDS011;11187;49.412;20.956;2023-02-22T13:38:57;19.02;;;16.85;;
22046;SDS011;11187;49.412;20.956;2023-02-22T13:41:27;20.98;;;15.95;;
22046;SDS011;11187;49.412;20.956;2023-02-22T13:50:17;22.35;;;16.33;;
22046;SDS011;11187;49.412;20.956;2023-02-22T13:53:11;25.60;;;15.63;;
22046;SDS011;11187;49.412;20.956;2023-02-22T13:55:51;25.88;;;17.35;;
22046;SDS011;11187;49.412;20.956;2023-02-22T13:58:47;18.90;;;15.60;;
22046;SDS011;11187;49.412;20.956;2023-02-22T14:01:40;19.40;;;17.27;;
22046;SDS011;11187;49.412;20.956;2023-02-22T14:04:39;26.83;;;17.70;;
22046;SDS011;11187;49.412;20.956;2023-02-22T14:10:38;18.95;;;16.10;;
22046;SDS011;11187;49.412;20.956;2023-02-22T14:16:32;18.98;;;15.95;;
22046;SDS011;11187;49.412;20.956;2023-02-22T14:19:19;28.33;;;17.20;;
22046;SDS011;11187;49.412;20.956;2023-02-22T14:24:47;21.40;;;16.27;;
22046;SDS011;11187;49.412;20.956;2023-02-22T14:27:22;18.98;;;16.60;;
22046;SDS011;11187;49.412;20.956;2023-02-22T14:33:48;24.42;;;15.45;;
22046;SDS011;11187;49.412;20.956;2023-02-22T14:36:54;23.02;;;14.45;;
22046;SDS011;11187;49.412;20.956;2023-02-22T14:39:51;23.10;;;16.23;;
22046;SDS011;11187;49.412;20.956;2023-02-22T14:42:35;18.25;;;16.20;;
22046;SDS011;11187;49.412;20.956;2023-02-22T14:45:44;25.02;;;16.40;;
22046;SDS011;11187;49.412;20.956;2023-02-22T14:51:30;23.23;;;15.18;;
22046;SDS011;11187;49.412;20.956;2023-02-22T14:54:14;19.77;;;14.88;;
22046;SDS011;11187;49.412;20.956;2023-02-22T14:57:17;19.15;;;15.38;;
22046;SDS011;11187;49.412;20.956;2023-02-22T15:00:04;23.83;;;15.73;;
22046;SDS011;11187;49.412;20.956;2023-02-22T15:03:28;19.52;;;15.77;;
22046;SDS011;11187;49.412;20.956;2023-02-22T15:06:34;20.15;;;16.35;;
22046;SDS011;11187;49.412;20.956;2023-02-22T15:09:11;22.25;;;13.40;;
22046;SDS011;11187;49.412;20.956;2023-02-22T15:12:25;20.08;;;14.75;;
22046;SDS011;11187;49.412;20.956;2023-02-22T15:15:22;23.10;;;17.08;;
22046;SDS011;11187;49.412;20.956;2023-02-22T15:18:18;19.02;;;16.10;;
22046;SDS011;11187;49.412;20.956;2023-02-22T15:20:56;25.00;;;14.50;;
22046;SDS011;11187;49.412;20.956;2023-02-22T15:24:03;18.42;;;16.10;;
22046;SDS011;11187;49.412;20.956;2023-02-22T15:26:39;19.60;;;14.68;;
22046;SDS011;11187;49.412;20.956;2023-02-22T15:29:42;20.25;;;14.55;;
22046;SDS011;11187;49.412;20.956;2023-02-22T15:37:46;20.85;;;16.25;;
22046;SDS011;11187;49.412;20.956;2023-02-22T15:40:39;17.55;;;15.73;;
22046;SDS011;11187;49.412;20.956;2023-02-22T15:43:35;23.75;;;15.27;;
22046;SDS011;11187;49.412;20.956;2023-02-22T15:46:10;16.67;;;14.98;;
22046;SDS011;11187;49.412;20.956;2023-02-22T15:52:20;21.77;;;15.32;;
22046;SDS011;11187;49.412;20.956;2023-02-22T15:55:17;19.35;;;15.60;;
22046;SDS011;11187;49.412;20.956;2023-02-22T15:57:54;22.05;;;16.08;;
22046;SDS011;11187;49.412;20.956;2023-02-22T16:01:04;20.92;;;15.85;;
22046;SDS011;11187;49.412;20.956;2023-02-22T16:04:01;19.67;;;14.80;;
22046;SDS011;11187;49.412;20.956;2023-02-22T16:07:05;19.30;;;15.07;;
22046;SDS011;11187;49.412;20.956;2023-02-22T16:09:49;21.67;;;14.57;;
22046;SDS011;11187;49.412;20.956;2023-02-22T16:12:44;21.63;;;15.77;;
22046;SDS011;11187;49.412;20.956;2023-02-22T16:15:18;27.52;;;18.00;;
22046;SDS011;11187;49.412;20.956;2023-02-22T16:18:27;28.33;;;15.15;;
22046;SDS011;11187;49.412;20.956;2023-02-22T16:21:26;23.50;;;17.52;;
22046;SDS011;11187;49.412;20.956;2023-02-22T16:24:45;22.55;;;16.58;;
22046;SDS011;11187;49.412;20.956;2023-02-22T16:27:31;30.42;;;18.40;;
22046;SDS011;11187;49.412;20.956;2023-02-22T16:30:27;22.60;;;17.50;;
22046;SDS011;11187;49.412;20.956;2023-02-22T16:33:13;19.38;;;16.05;;
22046;SDS011;11187;49.412;20.956;2023-02-22T16:35:48;18.35;;;15.18;;
22046;SDS011;11187;49.412;20.956;2023-02-22T16:38:42;22.63;;;17.55;;
22046;SDS011;11187;49.412;20.956;2023-02-22T16:41:37;26.58;;;18.45;;
22046;SDS011;11187;49.412;20.956;2023-02-22T16:44:11;24.92;;;17.98;;
22046;SDS011;11187;49.412;20.956;2023-02-22T16:47:08;34.95;;;19.92;;
22046;SDS011;11187;49.412;20.956;2023-02-22T16:49:43;32.40;;;20.48;;
22046;SDS011;11187;49.412;20.956;2023-02-22T16:52:37;30.55;;;20.70;;
22046;SDS011;11187;49.412;20.956;2023-02-22T16:55:12;36.35;;;21.08;;
22046;SDS011;11187;49.412;20.956;2023-02-22T16:58:01;30.38;;;20.75;;
22046;SDS011;11187;49.412;20.956;2023-02-22T17:00:36;30.52;;;18.33;;
22046;SDS011;11187;49.412;20.956;2023-02-22T17:03:23;28.30;;;18.33;;
22046;SDS011;11187;49.412;20.956;2023-02-22T17:05:58;27.60;;;17.20;;
22046;SDS011;11187;49.412;20.956;2023-02-22T17:08:44;26.00;;;15.90;;
22046;SDS011;11187;49.412;20.956;2023-02-22T17:11:18;27.67;;;17.23;;
22046;SDS011;11187;49.412;20.956;2023-02-22T17:14:05;24.67;;;16.33;;
22046;SDS011;11187;49.412;20.956;2023-02-22T17:16:39;26.35;;;15.35;;
22046;SDS011;11187;49.412;20.956;2023-02-22T17:19:32;28.30;;;16.25;;
22046;SDS011;11187;49.412;20.956;2023-02-22T17:22:06;21.02;;;15.18;;
22046;SDS011;11187;49.412;20.956;2023-02-22T17:24:52;32.78;;;16.58;;
22046;SDS011;11187;49.412;20.956;2023-02-22T17:27:26;25.70;;;17.10;;
22046;SDS011;11187;49.412;20.956;2023-02-22T17:30:13;34.75;;;17.52;;
22046;SDS011;11187;49.412;20.956;2023-02-22T17:32:50;28.08;;;16.98;;
22046;SDS011;11187;49.412;20.956;2023-02-22T17:35:48;32.03;;;17.17;;
22046;SDS011;11187;49.412;20.956;2023-02-22T17:38:22;29.35;;;17.85;;
22046;SDS011;11187;49.412;20.956;2023-02-22T17:41:09;32.03;;;17.73;;
22046;SDS011;11187;49.412;20.956;2023-02-22T17:43:43;29.38;;;18.30;;
22046;SDS011;11187;49.412;20.956;2023-02-22T17:46:36;24.70;;;16.23;;
22046;SDS011;11187;49.412;20.956;2023-02-22T17:49:12;29.58;;;18.88;;
22046;SDS011;11187;49.412;20.956;2023-02-22T17:51:58;39.30;;;20.30;;
22046;SDS011;11187;49.412;20.956;2023-02-22T17:54:32;26.42;;;18.20;;
22046;SDS011;11187;49.412;20.956;2023-02-22T17:57:18;30.15;;;17.70;;
22046;SDS011;11187;49.412;20.956;2023-02-22T17:59:52;26.85;;;18.35;;
22046;SDS011;11187;49.412;20.956;2023-02-22T18:02:38;34.78;;;19.55;;
22046;SDS011;11187;49.412;20.956;2023-02-22T18:05:13;31.77;;;20.77;;
22046;SDS011;11187;49.412;20.956;2023-02-22T18:08:06;39.58;;;21.52;;
22046;SDS011;11187;49.412;20.956;2023-02-22T18:11:02;40.10;;;21.27;;
22046;SDS011;11187;49.412;20.956;2023-02-22T18:13:37;37.92;;;20.15;;
22046;SDS011;11187;49.412;20.956;2023-02-22T18:16:30;30.65;;;19.95;;
22046;SDS011;11187;49.412;20.956;2023-02-22T18:19:24;37.28;;;20.23;;
22046;SDS011;11187;49.412;20.956;2023-02-22T18:22:18;45.83;;;23.20;;
22046;SDS011;11187;49.412;20.956;2023-02-22T18:24:52;45.05;;;23.42;;
22046;SDS011;11187;49.412;20.956;2023-02-22T18:27:41;37.28;;;21.85;;
22046;SDS011;11187;49.412;20.956;2023-02-22T18:30:17;39.80;;;22.98;;
22046;SDS011;11187;49.412;20.956;2023-02-22T18:33:04;34.65;;;20.98;;
22046;SDS011;11187;49.412;20.956;2023-02-22T18:35:40;42.60;;;22.73;;